sensor_id;sensor_type;location;lat;lon;timestamp;P1;durP1;ratioP1;P2;durP2;ratioP2
38499;SDS011;24269;51.894;4.622;2023-09-30T00:00:46;12.85;;;4.63;;
38499;SDS011;24269;51.894;4.622;2023-09-30T00:03:12;8.57;;;3.85;;
38499;SDS011;24269;51.894;4.622;2023-09-30T00:05:37;11.38;;;4.28;;
38499;SDS011;24269;51.894;4.622;2023-09-30T00:08:04;12.82;;;4.78;;
38499;SDS011;24269;51.894;4.622;2023-09-30T00:10:30;15.48;;;5.18;;
38499;SDS011;24269;51.894;4.622;2023-09-30T00:12:56;12.88;;;4.43;;
38499;SDS011;24269;51.894;4.622;2023-09-30T00:15:22;11.05;;;4.20;;
38499;SDS011;24269;51.894;4.622;2023-09-30T00:17:48;12.65;;;4.68;;
38499;SDS011;24269;51.894;4.622;2023-09-30T00:20:13;11.32;;;3.92;;
38499;SDS011;24269;51.894;4.622;2023-09-30T00:22:42;10.57;;;4.90;;
38499;SDS011;24269;51.894;4.622;2023-09-30T00:25:08;11.00;;;4.18;;
38499;SDS011;24269;51.894;4.622;2023-09-30T00:27:35;13.45;;;4.22;;
38499;SDS011;24269;51.894;4.622;2023-09-30T00:30:01;13.73;;;5.60;;
38499;SDS011;24269;51.894;4.622;2023-09-30T00:32:29;12.43;;;5.03;;
38499;SDS011;24269;51.894;4.622;2023-09-30T00:34:54;13.90;;;5.93;;
38499;SDS011;24269;51.894;4.622;2023-09-30T00:37:20;10.18;;;5.13;;
38499;SDS011;24269;51.894;4.622;2023-09-30T00:39:46;13.32;;;5.85;;
38499;SDS011;24269;51.894;4.622;2023-09-30T00:42:12;12.85;;;5.50;;
38499;SDS011;24269;51.894;4.622;2023-09-30T00:44:37;10.85;;;5.28;;
38499;SDS011;24269;51.894;4.622;2023-09-30T00:47:03;17.70;;;6.65;;
38499;SDS011;24269;51.894;4.622;2023-09-30T00:49:30;15.60;;;5.97;;
38499;SDS011;24269;51.894;4.622;2023-09-30T00:51:57;10.57;;;5.80;;
38499;SDS011;24269;51.894;4.622;2023-09-30T00:54:24;14.82;;;6.85;;
38499;SDS011;24269;51.894;4.622;2023-09-30T00:56:52;13.32;;;5.95;;
38499;SDS011;24269;51.894;4.622;2023-09-30T00:59:21;10.52;;;5.70;;
38499;SDS011;24269;51.894;4.622;2023-09-30T01:01:47;12.98;;;6.32;;
38499;SDS011;24269;51.894;4.622;2023-09-30T01:04:13;14.23;;;6.88;;
38499;SDS011;24269;51.894;4.622;2023-09-30T01:06:40;15.73;;;6.68;;
38499;SDS011;24269;51.894;4.622;2023-09-30T01:09:06;13.48;;;6.47;;
38499;SDS011;24269;51.894;4.622;2023-09-30T01:11:32;13.43;;;6.95;;
38499;SDS011;24269;51.894;4.622;2023-09-30T01:13:58;13.05;;;6.20;;
38499;SDS011;24269;51.894;4.622;2023-09-30T01:16:24;14.40;;;6.88;;
38499;SDS011;24269;51.894;4.622;2023-09-30T01:18:50;12.32;;;6.40;;
38499;SDS011;24269;51.894;4.622;2023-09-30T01:21:16;17.35;;;6.75;;
38499;SDS011;24269;51.894;4.622;2023-09-30T01:23:43;15.05;;;6.70;;
38499;SDS011;24269;51.894;4.622;2023-09-30T01:26:11;15.07;;;6.78;;
38499;SDS011;24269;51.894;4.622;2023-09-30T01:28:38;16.60;;;6.57;;
38499;SDS011;24269;51.894;4.622;2023-09-30T01:31:04;18.95;;;7.20;;
38499;SDS011;24269;51.894;4.622;2023-09-30T01:33:30;11.60;;;6.03;;
38499;SDS011;24269;51.894;4.622;2023-09-30T01:35:57;13.65;;;6.88;;
38499;SDS011;24269;51.894;4.622;2023-09-30T01:38:24;16.45;;;7.68;;
38499;SDS011;24269;51.894;4.622;2023-09-30T01:40:50;12.63;;;6.65;;
38499;SDS011;24269;51.894;4.622;2023-09-30T01:43:16;15.82;;;7.25;;
38499;SDS011;24269;51.894;4.622;2023-09-30T01:45:42;11.80;;;6.90;;
38499;SDS011;24269;51.894;4.622;2023-09-30T01:48:09;14.15;;;7.20;;
38499;SDS011;24269;51.894;4.622;2023-09-30T01:50:36;16.73;;;6.40;;
38499;SDS011;24269;51.894;4.622;2023-09-30T01:53:06;15.88;;;7.25;;
38499;SDS011;24269;51.894;4.622;2023-09-30T01:55:35;14.95;;;7.00;;
38499;SDS011;24269;51.894;4.622;2023-09-30T01:58:01;14.90;;;6.78;;
38499;SDS011;24269;51.894;4.622;2023-09-30T02:00:27;14.50;;;6.90;;
38499;SDS011;24269;51.894;4.622;2023-09-30T02:02:54;13.75;;;7.70;;
38499;SDS011;24269;51.894;4.622;2023-09-30T02:05:21;17.45;;;7.20;;
38499;SDS011;24269;51.894;4.622;2023-09-30T02:07:48;17.45;;;7.47;;
38499;SDS011;24269;51.894;4.622;2023-09-30T02:10:14;15.35;;;7.25;;
38499;SDS011;24269;51.894;4.622;2023-09-30T02:12:39;15.38;;;6.90;;
38499;SDS011;24269;51.894;4.622;2023-09-30T02:15:05;13.88;;;6.93;;
38499;SDS011;24269;51.894;4.622;2023-09-30T02:17:32;13.80;;;7.22;;
38499;SDS011;24269;51.894;4.622;2023-09-30T02:19:58;18.98;;;8.00;;
38499;SDS011;24269;51.894;4.622;2023-09-30T02:22:26;14.50;;;7.15;;
38499;SDS011;24269;51.894;4.622;2023-09-30T02:24:53;18.08;;;7.55;;
38499;SDS011;24269;51.894;4.622;2023-09-30T02:27:19;18.83;;;8.05;;
38499;SDS011;24269;51.894;4.622;2023-09-30T02:29:45;13.32;;;7.35;;
38499;SDS011;24269;51.894;4.622;2023-09-30T02:32:10;14.93;;;6.97;;
38499;SDS011;24269;51.894;4.622;2023-09-30T02:34:37;15.68;;;7.05;;
38499;SDS011;24269;51.894;4.622;2023-09-30T02:37:03;15.30;;;8.13;;
38499;SDS011;24269;51.894;4.622;2023-09-30T02:39:29;17.02;;;7.88;;
38499;SDS011;24269;51.894;4.622;2023-09-30T02:41:54;15.55;;;8.15;;
38499;SDS011;24269;51.894;4.622;2023-09-30T02:44:20;15.13;;;7.82;;
38499;SDS011;24269;51.894;4.622;2023-09-30T02:46:45;18.30;;;9.18;;
38499;SDS011;24269;51.894;4.622;2023-09-30T02:49:11;18.10;;;8.45;;
38499;SDS011;24269;51.894;4.622;2023-09-30T02:51:37;18.90;;;7.68;;
38499;SDS011;24269;51.894;4.622;2023-09-30T02:54:02;20.50;;;9.52;;
38499;SDS011;24269;51.894;4.622;2023-09-30T02:56:28;21.10;;;9.48;;
38499;SDS011;24269;51.894;4.622;2023-09-30T02:58:55;19.50;;;9.10;;
38499;SDS011;24269;51.894;4.622;2023-09-30T03:01:21;17.83;;;8.85;;
38499;SDS011;24269;51.894;4.622;2023-09-30T03:03:47;19.25;;;8.80;;
38499;SDS011;24269;51.894;4.622;2023-09-30T03:06:12;15.70;;;7.97;;
38499;SDS011;24269;51.894;4.622;2023-09-30T03:08:39;21.90;;;8.75;;
38499;SDS011;24269;51.894;4.622;2023-09-30T03:11:06;16.73;;;7.72;;
38499;SDS011;24269;51.894;4.622;2023-09-30T03:13:32;19.42;;;8.18;;
38499;SDS011;24269;51.894;4.622;2023-09-30T03:15:58;14.50;;;7.60;;
38499;SDS011;24269;51.894;4.622;2023-09-30T03:18:26;14.38;;;7.82;;
38499;SDS011;24269;51.894;4.622;2023-09-30T03:20:58;13.07;;;8.00;;
38499;SDS011;24269;51.894;4.622;2023-09-30T03:23:33;22.85;;;8.27;;
38499;SDS011;24269;51.894;4.622;2023-09-30T03:26:00;16.90;;;7.95;;
38499;SDS011;24269;51.894;4.622;2023-09-30T03:28:26;17.30;;;8.35;;
38499;SDS011;24269;51.894;4.622;2023-09-30T03:30:52;21.40;;;8.38;;
38499;SDS011;24269;51.894;4.622;2023-09-30T03:33:18;19.63;;;8.23;;
38499;SDS011;24269;51.894;4.622;2023-09-30T03:35:43;18.90;;;8.45;;
38499;SDS011;24269;51.894;4.622;2023-09-30T03:38:10;21.50;;;8.30;;
38499;SDS011;24269;51.894;4.622;2023-09-30T03:40:38;16.35;;;8.70;;
38499;SDS011;24269;51.894;4.622;2023-09-30T03:43:04;16.42;;;9.25;;
38499;SDS011;24269;51.894;4.622;2023-09-30T03:45:35;17.35;;;9.10;;
38499;SDS011;24269;51.894;4.622;2023-09-30T03:48:02;16.60;;;8.68;;
38499;SDS011;24269;51.894;4.622;2023-09-30T03:50:28;18.77;;;8.82;;
38499;SDS011;24269;51.894;4.622;2023-09-30T03:53:01;19.58;;;9.75;;
38499;SDS011;24269;51.894;4.622;2023-09-30T03:55:32;16.58;;;8.77;;
38499;SDS011;24269;51.894;4.622;2023-09-30T03:57:58;17.55;;;9.23;;
38499;SDS011;24269;51.894;4.622;2023-09-30T04:00:24;16.65;;;8.48;;
38499;SDS011;24269;51.894;4.622;2023-09-30T04:02:50;19.85;;;9.27;;
38499;SDS011;24269;51.894;4.622;2023-09-30T04:05:23;17.40;;;9.75;;
38499;SDS011;24269;51.894;4.622;2023-09-30T04:07:54;20.17;;;10.70;;
38499;SDS011;24269;51.894;4.622;2023-09-30T04:10:20;19.38;;;10.07;;
38499;SDS011;24269;51.894;4.622;2023-09-30T04:12:47;18.33;;;10.45;;
38499;SDS011;24269;51.894;4.622;2023-09-30T04:15:13;21.73;;;10.45;;
38499;SDS011;24269;51.894;4.622;2023-09-30T04:17:39;21.52;;;10.30;;
38499;SDS011;24269;51.894;4.622;2023-09-30T04:20:05;19.00;;;10.57;;
38499;SDS011;24269;51.894;4.622;2023-09-30T04:22:35;23.00;;;11.60;;
38499;SDS011;24269;51.894;4.622;2023-09-30T04:25:01;19.67;;;10.75;;
38499;SDS011;24269;51.894;4.622;2023-09-30T04:27:30;20.25;;;10.63;;
38499;SDS011;24269;51.894;4.622;2023-09-30T04:29:56;21.85;;;11.40;;
38499;SDS011;24269;51.894;4.622;2023-09-30T04:32:21;23.05;;;11.45;;
38499;SDS011;24269;51.894;4.622;2023-09-30T04:34:47;21.35;;;10.85;;
38499;SDS011;24269;51.894;4.622;2023-09-30T04:37:13;23.00;;;12.90;;
38499;SDS011;24269;51.894;4.622;2023-09-30T04:39:39;25.42;;;11.95;;
38499;SDS011;24269;51.894;4.622;2023-09-30T04:42:04;22.52;;;11.80;;
38499;SDS011;24269;51.894;4.622;2023-09-30T04:44:30;23.27;;;12.02;;
38499;SDS011;24269;51.894;4.622;2023-09-30T04:46:56;21.48;;;10.82;;
38499;SDS011;24269;51.894;4.622;2023-09-30T04:49:22;19.63;;;10.85;;
38499;SDS011;24269;51.894;4.622;2023-09-30T04:51:49;21.63;;;11.43;;
38499;SDS011;24269;51.894;4.622;2023-09-30T04:54:14;21.88;;;12.18;;
38499;SDS011;24269;51.894;4.622;2023-09-30T04:56:40;20.08;;;11.57;;
38499;SDS011;24269;51.894;4.622;2023-09-30T04:59:06;21.92;;;11.23;;
38499;SDS011;24269;51.894;4.622;2023-09-30T05:01:32;23.73;;;11.93;;
38499;SDS011;24269;51.894;4.622;2023-09-30T05:03:57;21.85;;;11.70;;
38499;SDS011;24269;51.894;4.622;2023-09-30T05:06:24;26.85;;;12.35;;
38499;SDS011;24269;51.894;4.622;2023-09-30T05:08:49;21.83;;;12.15;;
38499;SDS011;24269;51.894;4.622;2023-09-30T05:11:15;27.88;;;12.85;;
38499;SDS011;24269;51.894;4.622;2023-09-30T05:13:41;23.75;;;12.70;;
38499;SDS011;24269;51.894;4.622;2023-09-30T05:16:06;28.05;;;14.27;;
38499;SDS011;24269;51.894;4.622;2023-09-30T05:18:32;21.08;;;12.38;;
38499;SDS011;24269;51.894;4.622;2023-09-30T05:20:58;26.17;;;13.48;;
38499;SDS011;24269;51.894;4.622;2023-09-30T05:23:24;27.10;;;13.35;;
38499;SDS011;24269;51.894;4.622;2023-09-30T05:25:50;27.95;;;13.93;;
38499;SDS011;24269;51.894;4.622;2023-09-30T05:28:16;22.92;;;13.18;;
38499;SDS011;24269;51.894;4.622;2023-09-30T05:30:41;30.02;;;12.65;;
38499;SDS011;24269;51.894;4.622;2023-09-30T05:33:08;24.05;;;13.20;;
38499;SDS011;24269;51.894;4.622;2023-09-30T05:35:39;29.35;;;14.40;;
38499;SDS011;24269;51.894;4.622;2023-09-30T05:38:07;24.95;;;14.50;;
38499;SDS011;24269;51.894;4.622;2023-09-30T05:40:33;27.63;;;14.45;;
38499;SDS011;24269;51.894;4.622;2023-09-30T05:42:59;25.33;;;15.05;;
38499;SDS011;24269;51.894;4.622;2023-09-30T05:45:25;27.88;;;13.98;;
38499;SDS011;24269;51.894;4.622;2023-09-30T05:47:52;27.90;;;14.43;;
38499;SDS011;24269;51.894;4.622;2023-09-30T05:50:20;23.52;;;13.60;;
38499;SDS011;24269;51.894;4.622;2023-09-30T05:52:55;21.50;;;13.13;;
38499;SDS011;24269;51.894;4.622;2023-09-30T05:55:21;26.08;;;13.88;;
38499;SDS011;24269;51.894;4.622;2023-09-30T05:57:48;26.92;;;14.73;;
38499;SDS011;24269;51.894;4.622;2023-09-30T06:00:20;29.65;;;15.38;;
38499;SDS011;24269;51.894;4.622;2023-09-30T06:02:47;31.20;;;14.95;;
38499;SDS011;24269;51.894;4.622;2023-09-30T06:05:15;26.02;;;15.63;;
38499;SDS011;24269;51.894;4.622;2023-09-30T06:07:51;24.75;;;14.50;;
38499;SDS011;24269;51.894;4.622;2023-09-30T06:10:19;27.20;;;15.73;;
38499;SDS011;24269;51.894;4.622;2023-09-30T06:12:49;33.83;;;17.25;;
38499;SDS011;24269;51.894;4.622;2023-09-30T06:15:19;28.38;;;16.02;;
38499;SDS011;24269;51.894;4.622;2023-09-30T06:17:50;27.98;;;16.52;;
38499;SDS011;24269;51.894;4.622;2023-09-30T06:20:19;30.13;;;15.93;;
38499;SDS011;24269;51.894;4.622;2023-09-30T06:22:49;31.10;;;16.10;;
38499;SDS011;24269;51.894;4.622;2023-09-30T06:25:15;31.58;;;16.50;;
38499;SDS011;24269;51.894;4.622;2023-09-30T06:27:42;33.42;;;15.57;;
38499;SDS011;24269;51.894;4.622;2023-09-30T06:30:09;27.67;;;15.93;;
38499;SDS011;24269;51.894;4.622;2023-09-30T06:32:35;29.05;;;16.80;;
38499;SDS011;24269;51.894;4.622;2023-09-30T06:35:04;29.88;;;16.33;;
38499;SDS011;24269;51.894;4.622;2023-09-30T06:37:32;28.63;;;16.30;;
38499;SDS011;24269;51.894;4.622;2023-09-30T06:40:00;30.45;;;16.35;;
38499;SDS011;24269;51.894;4.622;2023-09-30T06:42:39;31.92;;;16.00;;
38499;SDS011;24269;51.894;4.622;2023-09-30T06:45:07;30.48;;;16.45;;
38499;SDS011;24269;51.894;4.622;2023-09-30T06:47:35;30.60;;;16.33;;
38499;SDS011;24269;51.894;4.622;2023-09-30T06:50:05;28.83;;;16.35;;
38499;SDS011;24269;51.894;4.622;2023-09-30T06:52:38;30.83;;;15.95;;
38499;SDS011;24269;51.894;4.622;2023-09-30T06:55:06;29.90;;;16.88;;
38499;SDS011;24269;51.894;4.622;2023-09-30T06:57:36;29.88;;;15.88;;
38499;SDS011;24269;51.894;4.622;2023-09-30T07:00:12;31.98;;;16.60;;
38499;SDS011;24269;51.894;4.622;2023-09-30T07:02:39;28.45;;;15.88;;
38499;SDS011;24269;51.894;4.622;2023-09-30T07:05:13;27.58;;;15.70;;
38499;SDS011;24269;51.894;4.622;2023-09-30T07:07:40;30.23;;;16.52;;
38499;SDS011;24269;51.894;4.622;2023-09-30T07:10:11;31.02;;;16.98;;
38499;SDS011;24269;51.894;4.622;2023-09-30T07:12:37;30.33;;;15.70;;
38499;SDS011;24269;51.894;4.622;2023-09-30T07:15:04;31.33;;;16.92;;
38499;SDS011;24269;51.894;4.622;2023-09-30T07:17:33;33.92;;;16.25;;
38499;SDS011;24269;51.894;4.622;2023-09-30T07:19:59;29.35;;;17.02;;
38499;SDS011;24269;51.894;4.622;2023-09-30T07:22:26;25.67;;;15.27;;
38499;SDS011;24269;51.894;4.622;2023-09-30T07:24:51;33.20;;;17.10;;
38499;SDS011;24269;51.894;4.622;2023-09-30T07:27:17;31.83;;;15.68;;
38499;SDS011;24269;51.894;4.622;2023-09-30T07:29:43;27.10;;;15.02;;
38499;SDS011;24269;51.894;4.622;2023-09-30T07:32:09;28.75;;;15.50;;
38499;SDS011;24269;51.894;4.622;2023-09-30T07:34:35;24.55;;;13.98;;
38499;SDS011;24269;51.894;4.622;2023-09-30T07:37:01;28.00;;;15.00;;
38499;SDS011;24269;51.894;4.622;2023-09-30T07:39:27;24.50;;;14.07;;
38499;SDS011;24269;51.894;4.622;2023-09-30T07:41:54;25.83;;;13.82;;
38499;SDS011;24269;51.894;4.622;2023-09-30T07:44:20;25.48;;;13.93;;
38499;SDS011;24269;51.894;4.622;2023-09-30T07:46:45;23.35;;;13.07;;
38499;SDS011;24269;51.894;4.622;2023-09-30T07:49:12;25.15;;;13.13;;
38499;SDS011;24269;51.894;4.622;2023-09-30T07:51:37;23.08;;;12.18;;
38499;SDS011;24269;51.894;4.622;2023-09-30T07:54:06;20.80;;;11.32;;
38499;SDS011;24269;51.894;4.622;2023-09-30T07:56:32;20.20;;;11.30;;
38499;SDS011;24269;51.894;4.622;2023-09-30T07:58:58;20.00;;;10.57;;
38499;SDS011;24269;51.894;4.622;2023-09-30T08:01:24;18.63;;;10.55;;
38499;SDS011;24269;51.894;4.622;2023-09-30T08:03:49;16.42;;;9.60;;
38499;SDS011;24269;51.894;4.622;2023-09-30T08:06:15;15.90;;;9.13;;
38499;SDS011;24269;51.894;4.622;2023-09-30T08:08:41;15.27;;;9.45;;
38499;SDS011;24269;51.894;4.622;2023-09-30T08:11:06;16.27;;;8.70;;
38499;SDS011;24269;51.894;4.622;2023-09-30T08:13:32;18.23;;;8.63;;
38499;SDS011;24269;51.894;4.622;2023-09-30T08:15:59;15.43;;;8.45;;
38499;SDS011;24269;51.894;4.622;2023-09-30T08:18:25;13.70;;;7.70;;
38499;SDS011;24269;51.894;4.622;2023-09-30T08:20:50;16.52;;;8.23;;
38499;SDS011;24269;51.894;4.622;2023-09-30T08:23:16;15.90;;;7.93;;
38499;SDS011;24269;51.894;4.622;2023-09-30T08:25:42;21.13;;;8.13;;
38499;SDS011;24269;51.894;4.622;2023-09-30T08:28:07;14.68;;;7.57;;
38499;SDS011;24269;51.894;4.622;2023-09-30T08:30:34;13.30;;;6.82;;
38499;SDS011;24269;51.894;4.622;2023-09-30T08:33:01;12.90;;;6.00;;
38499;SDS011;24269;51.894;4.622;2023-09-30T08:35:34;11.95;;;6.22;;
38499;SDS011;24269;51.894;4.622;2023-09-30T08:38:01;14.27;;;7.00;;
38499;SDS011;24269;51.894;4.622;2023-09-30T08:40:27;14.50;;;6.47;;
38499;SDS011;24269;51.894;4.622;2023-09-30T08:42:55;13.18;;;6.75;;
38499;SDS011;24269;51.894;4.622;2023-09-30T08:45:21;13.90;;;5.93;;
38499;SDS011;24269;51.894;4.622;2023-09-30T08:47:46;15.07;;;6.00;;
38499;SDS011;24269;51.894;4.622;2023-09-30T08:50:12;12.05;;;5.43;;
38499;SDS011;24269;51.894;4.622;2023-09-30T08:52:40;13.27;;;5.50;;
38499;SDS011;24269;51.894;4.622;2023-09-30T08:55:08;11.88;;;5.53;;
38499;SDS011;24269;51.894;4.622;2023-09-30T08:57:36;13.48;;;4.97;;
38499;SDS011;24269;51.894;4.622;2023-09-30T09:00:04;10.68;;;5.70;;
38499;SDS011;24269;51.894;4.622;2023-09-30T09:02:35;14.07;;;5.50;;
38499;SDS011;24269;51.894;4.622;2023-09-30T09:05:01;10.82;;;5.07;;
38499;SDS011;24269;51.894;4.622;2023-09-30T09:07:27;11.13;;;5.30;;
38499;SDS011;24269;51.894;4.622;2023-09-30T09:10:03;12.60;;;5.22;;
38499;SDS011;24269;51.894;4.622;2023-09-30T09:12:29;12.40;;;4.93;;
38499;SDS011;24269;51.894;4.622;2023-09-30T09:14:55;9.88;;;4.75;;
38499;SDS011;24269;51.894;4.622;2023-09-30T09:17:21;10.20;;;5.10;;
38499;SDS011;24269;51.894;4.622;2023-09-30T09:20:00;10.13;;;4.65;;
38499;SDS011;24269;51.894;4.622;2023-09-30T09:22:39;9.95;;;4.63;;
38499;SDS011;24269;51.894;4.622;2023-09-30T09:25:05;11.35;;;5.13;;
38499;SDS011;24269;51.894;4.622;2023-09-30T09:27:33;13.68;;;5.47;;
38499;SDS011;24269;51.894;4.622;2023-09-30T09:30:17;10.20;;;4.68;;
38499;SDS011;24269;51.894;4.622;2023-09-30T09:33:05;10.25;;;4.95;;
38499;SDS011;24269;51.894;4.622;2023-09-30T09:35:32;9.90;;;4.25;;
38499;SDS011;24269;51.894;4.622;2023-09-30T09:38:00;9.18;;;4.18;;
38499;SDS011;24269;51.894;4.622;2023-09-30T09:40:33;11.07;;;4.00;;
38499;SDS011;24269;51.894;4.622;2023-09-30T09:43:03;11.20;;;4.60;;
38499;SDS011;24269;51.894;4.622;2023-09-30T09:45:30;12.43;;;4.95;;
38499;SDS011;24269;51.894;4.622;2023-09-30T09:48:01;10.20;;;4.50;;
38499;SDS011;24269;51.894;4.622;2023-09-30T09:50:29;7.38;;;3.28;;
38499;SDS011;24269;51.894;4.622;2023-09-30T09:52:56;10.85;;;4.20;;
38499;SDS011;24269;51.894;4.622;2023-09-30T09:55:24;11.70;;;4.80;;
38499;SDS011;24269;51.894;4.622;2023-09-30T09:57:53;9.20;;;3.67;;
38499;SDS011;24269;51.894;4.622;2023-09-30T10:00:22;8.45;;;4.18;;
38499;SDS011;24269;51.894;4.622;2023-09-30T10:02:50;10.70;;;3.70;;
38499;SDS011;24269;51.894;4.622;2023-09-30T10:05:20;10.40;;;3.22;;
38499;SDS011;24269;51.894;4.622;2023-09-30T10:10:59;10.52;;;2.97;;
38499;SDS011;24269;51.894;4.622;2023-09-30T10:19:21;8.63;;;3.55;;
38499;SDS011;24269;51.894;4.622;2023-09-30T10:24:44;10.30;;;3.60;;
38499;SDS011;24269;51.894;4.622;2023-09-30T10:35:18;7.85;;;2.72;;
38499;SDS011;24269;51.894;4.622;2023-09-30T10:40:51;8.07;;;2.47;;
38499;SDS011;24269;51.894;4.622;2023-09-30T10:43:36;8.18;;;3.03;;
38499;SDS011;24269;51.894;4.622;2023-09-30T10:46:29;8.90;;;3.33;;
38499;SDS011;24269;51.894;4.622;2023-09-30T10:48:52;8.95;;;3.45;;
38499;SDS011;24269;51.894;4.622;2023-09-30T10:51:19;7.70;;;3.00;;
38499;SDS011;24269;51.894;4.622;2023-09-30T10:53:52;7.70;;;3.10;;
38499;SDS011;24269;51.894;4.622;2023-09-30T10:56:31;9.63;;;2.97;;
38499;SDS011;24269;51.894;4.622;2023-09-30T10:58:58;10.77;;;3.40;;
38499;SDS011;24269;51.894;4.622;2023-09-30T11:01:31;6.97;;;2.58;;
38499;SDS011;24269;51.894;4.622;2023-09-30T11:03:59;8.23;;;3.42;;
38499;SDS011;24269;51.894;4.622;2023-09-30T11:06:34;5.00;;;1.88;;
38499;SDS011;24269;51.894;4.622;2023-09-30T11:09:00;7.35;;;1.70;;
38499;SDS011;24269;51.894;4.622;2023-09-30T11:11:37;8.13;;;2.03;;
38499;SDS011;24269;51.894;4.622;2023-09-30T11:16:51;6.72;;;2.70;;
38499;SDS011;24269;51.894;4.622;2023-09-30T11:19:17;5.18;;;1.60;;
38499;SDS011;24269;51.894;4.622;2023-09-30T11:21:46;6.47;;;1.67;;
38499;SDS011;24269;51.894;4.622;2023-09-30T11:24:16;7.25;;;2.22;;
38499;SDS011;24269;51.894;4.622;2023-09-30T11:26:42;4.18;;;1.60;;
38499;SDS011;24269;51.894;4.622;2023-09-30T11:29:14;4.72;;;1.70;;
38499;SDS011;24269;51.894;4.622;2023-09-30T11:31:46;8.93;;;2.13;;
38499;SDS011;24269;51.894;4.622;2023-09-30T11:34:31;8.57;;;2.43;;
38499;SDS011;24269;51.894;4.622;2023-09-30T11:37:01;8.10;;;2.30;;
38499;SDS011;24269;51.894;4.622;2023-09-30T11:39:31;7.25;;;2.35;;
38499;SDS011;24269;51.894;4.622;2023-09-30T11:42:01;5.80;;;2.13;;
38499;SDS011;24269;51.894;4.622;2023-09-30T11:44:43;7.63;;;2.88;;
38499;SDS011;24269;51.894;4.622;2023-09-30T11:47:11;10.50;;;2.70;;
38499;SDS011;24269;51.894;4.622;2023-09-30T11:49:40;9.10;;;2.30;;
38499;SDS011;24269;51.894;4.622;2023-09-30T11:52:10;8.13;;;2.78;;
38499;SDS011;24269;51.894;4.622;2023-09-30T11:54:42;6.43;;;3.20;;
38499;SDS011;24269;51.894;4.622;2023-09-30T11:57:13;10.27;;;3.30;;
38499;SDS011;24269;51.894;4.622;2023-09-30T11:59:47;6.35;;;1.75;;
38499;SDS011;24269;51.894;4.622;2023-09-30T12:02:14;5.78;;;1.73;;
38499;SDS011;24269;51.894;4.622;2023-09-30T12:04:45;5.43;;;1.92;;
38499;SDS011;24269;51.894;4.622;2023-09-30T12:07:12;7.65;;;2.40;;
38499;SDS011;24269;51.894;4.622;2023-09-30T12:09:39;7.25;;;2.17;;
38499;SDS011;24269;51.894;4.622;2023-09-30T12:12:07;8.90;;;2.20;;
38499;SDS011;24269;51.894;4.622;2023-09-30T12:14:37;7.13;;;2.55;;
38499;SDS011;24269;51.894;4.622;2023-09-30T12:17:03;9.10;;;2.75;;
38499;SDS011;24269;51.894;4.622;2023-09-30T12:19:29;8.45;;;2.63;;
38499;SDS011;24269;51.894;4.622;2023-09-30T12:21:54;8.13;;;2.70;;
38499;SDS011;24269;51.894;4.622;2023-09-30T12:24:21;7.55;;;2.15;;
38499;SDS011;24269;51.894;4.622;2023-09-30T12:26:53;9.52;;;3.03;;
38499;SDS011;24269;51.894;4.622;2023-09-30T12:29:27;7.38;;;2.17;;
38499;SDS011;24269;51.894;4.622;2023-09-30T12:32:03;7.30;;;1.85;;
38499;SDS011;24269;51.894;4.622;2023-09-30T12:34:37;7.15;;;1.90;;
38499;SDS011;24269;51.894;4.622;2023-09-30T12:37:03;7.88;;;1.98;;
38499;SDS011;24269;51.894;4.622;2023-09-30T12:39:29;7.65;;;1.83;;
38499;SDS011;24269;51.894;4.622;2023-09-30T12:41:58;5.18;;;1.65;;
38499;SDS011;24269;51.894;4.622;2023-09-30T12:44:25;8.82;;;1.83;;
38499;SDS011;24269;51.894;4.622;2023-09-30T12:46:51;6.90;;;1.73;;
38499;SDS011;24269;51.894;4.622;2023-09-30T12:49:18;6.18;;;1.95;;
38499;SDS011;24269;51.894;4.622;2023-09-30T12:51:47;7.53;;;1.98;;
38499;SDS011;24269;51.894;4.622;2023-09-30T12:54:16;5.65;;;1.80;;
38499;SDS011;24269;51.894;4.622;2023-09-30T12:56:43;6.82;;;1.80;;
38499;SDS011;24269;51.894;4.622;2023-09-30T12:59:12;6.40;;;1.83;;
38499;SDS011;24269;51.894;4.622;2023-09-30T13:01:50;5.33;;;1.60;;
38499;SDS011;24269;51.894;4.622;2023-09-30T13:04:17;6.30;;;1.55;;
38499;SDS011;24269;51.894;4.622;2023-09-30T13:06:43;10.25;;;2.20;;
38499;SDS011;24269;51.894;4.622;2023-09-30T13:09:10;9.25;;;2.00;;
38499;SDS011;24269;51.894;4.622;2023-09-30T13:11:37;7.38;;;2.05;;
38499;SDS011;24269;51.894;4.622;2023-09-30T13:14:06;8.90;;;2.28;;
38499;SDS011;24269;51.894;4.622;2023-09-30T13:16:35;9.52;;;1.85;;
38499;SDS011;24269;51.894;4.622;2023-09-30T13:19:01;9.07;;;2.25;;
38499;SDS011;24269;51.894;4.622;2023-09-30T13:21:27;6.30;;;1.83;;
38499;SDS011;24269;51.894;4.622;2023-09-30T13:23:58;9.48;;;2.60;;
38499;SDS011;24269;51.894;4.622;2023-09-30T13:26:25;8.25;;;2.10;;
38499;SDS011;24269;51.894;4.622;2023-09-30T13:28:55;9.15;;;2.30;;
38499;SDS011;24269;51.894;4.622;2023-09-30T13:31:22;7.38;;;2.00;;
38499;SDS011;24269;51.894;4.622;2023-09-30T13:33:48;6.55;;;1.88;;
38499;SDS011;24269;51.894;4.622;2023-09-30T13:36:14;10.35;;;2.30;;
38499;SDS011;24269;51.894;4.622;2023-09-30T13:38:41;7.68;;;2.03;;
38499;SDS011;24269;51.894;4.622;2023-09-30T13:41:07;6.15;;;1.58;;
38499;SDS011;24269;51.894;4.622;2023-09-30T13:43:34;11.27;;;2.20;;
38499;SDS011;24269;51.894;4.622;2023-09-30T13:46:04;5.90;;;2.00;;
38499;SDS011;24269;51.894;4.622;2023-09-30T13:48:34;10.43;;;1.95;;
38499;SDS011;24269;51.894;4.622;2023-09-30T13:51:07;6.38;;;1.92;;
38499;SDS011;24269;51.894;4.622;2023-09-30T13:53:34;6.75;;;1.80;;
38499;SDS011;24269;51.894;4.622;2023-09-30T13:56:00;7.53;;;1.60;;
38499;SDS011;24269;51.894;4.622;2023-09-30T13:58:28;7.20;;;1.40;;
38499;SDS011;24269;51.894;4.622;2023-09-30T14:00:54;5.55;;;0.93;;
38499;SDS011;24269;51.894;4.622;2023-09-30T14:03:23;6.47;;;1.50;;
38499;SDS011;24269;51.894;4.622;2023-09-30T14:05:50;4.18;;;1.05;;
38499;SDS011;24269;51.894;4.622;2023-09-30T14:08:18;5.22;;;0.98;;
38499;SDS011;24269;51.894;4.622;2023-09-30T14:10:45;6.72;;;1.40;;
38499;SDS011;24269;51.894;4.622;2023-09-30T14:13:10;6.47;;;1.50;;
38499;SDS011;24269;51.894;4.622;2023-09-30T14:15:40;8.93;;;1.90;;
38499;SDS011;24269;51.894;4.622;2023-09-30T14:18:06;5.78;;;1.55;;
38499;SDS011;24269;51.894;4.622;2023-09-30T14:20:33;6.85;;;1.50;;
38499;SDS011;24269;51.894;4.622;2023-09-30T14:23:00;7.35;;;1.50;;
38499;SDS011;24269;51.894;4.622;2023-09-30T14:25:27;8.43;;;1.65;;
38499;SDS011;24269;51.894;4.622;2023-09-30T14:27:53;10.52;;;1.83;;
38499;SDS011;24269;51.894;4.622;2023-09-30T14:30:19;8.15;;;1.27;;
38499;SDS011;24269;51.894;4.622;2023-09-30T14:32:46;7.03;;;1.50;;
38499;SDS011;24269;51.894;4.622;2023-09-30T14:35:12;4.35;;;1.13;;
38499;SDS011;24269;51.894;4.622;2023-09-30T14:37:38;5.93;;;1.40;;
38499;SDS011;24269;51.894;4.622;2023-09-30T14:40:06;3.58;;;1.00;;
38499;SDS011;24269;51.894;4.622;2023-09-30T14:42:40;9.55;;;1.30;;
38499;SDS011;24269;51.894;4.622;2023-09-30T14:45:07;7.03;;;1.50;;
38499;SDS011;24269;51.894;4.622;2023-09-30T14:47:34;6.25;;;1.48;;
38499;SDS011;24269;51.894;4.622;2023-09-30T14:49:59;5.70;;;1.20;;
38499;SDS011;24269;51.894;4.622;2023-09-30T14:52:27;5.60;;;1.42;;
38499;SDS011;24269;51.894;4.622;2023-09-30T14:54:53;7.75;;;1.75;;
38499;SDS011;24269;51.894;4.622;2023-09-30T14:57:20;6.93;;;1.25;;
38499;SDS011;24269;51.894;4.622;2023-09-30T14:59:47;6.28;;;1.50;;
38499;SDS011;24269;51.894;4.622;2023-09-30T15:02:13;5.38;;;1.00;;
38499;SDS011;24269;51.894;4.622;2023-09-30T15:04:40;6.93;;;1.30;;